Time;durP1;ratioP1;P1;durP2;ratioP2;P2;SDS_P1;SDS_P2;PMS_P1;PMS_P2;Temp;Humidity;BMP_temperature;BMP_pressure;BME280_temperature;BME280_humidity;BME280_pressure;Samples;Min_cycle;Max_cycle;Signal;HPM_P1;HPM_P2
2022/04/03 00:01:17;;;;;;;;;;;2.80;99.90;;;;;;5109525;28;19952;-71
2022/04/03 00:03:45;;;;;;;;;;;2.80;99.90;;;;;;5110505;28;19959;-71
2022/04/03 00:06:11;;;;;;;;;;;2.80;99.90;;;;;;5109947;28;19962;-71
2022/04/03 00:08:38;;;;;;;;;;;2.80;99.90;;;;;;5110128;28;20361;-72
2022/04/03 00:11:04;;;;;;;;;;;2.80;99.90;;;;;;5108319;28;19987;-71
2022/04/03 00:13:31;;;;;;;;;;;2.90;99.90;;;;;;5109154;28;19958;-69
2022/04/03 00:15:57;;;;;;;;;;;2.90;99.90;;;;;;5107928;28;20314;-68
2022/04/03 00:18:25;;;;;;;;;;;2.80;99.90;;;;;;5111505;27;19948;-70
2022/04/03 00:20:52;;;;;;;;;;;2.80;99.90;;;;;;5107841;28;19960;-69
2022/04/03 00:23:20;;;;;;;;;;;2.80;99.90;;;;;;5107932;28;19998;-69
2022/04/03 00:25:47;;;;;;;;;;;2.80;99.90;;;;;;5108743;28;19964;-69
2022/04/03 00:28:13;;;;;;;;;;;2.80;99.90;;;;;;5109148;28;19951;-69
2022/04/03 00:30:41;;;;;;;;;;;2.80;99.90;;;;;;5107875;28;20034;-71
2022/04/03 00:33:08;;;;;;;;;;;2.80;99.90;;;;;;5109126;28;20389;-71
2022/04/03 00:35:36;;;;;;;;;;;2.70;99.90;;;;;;5108348;28;20052;-71
2022/04/03 00:38:03;;;;;;;;;;;2.70;99.90;;;;;;5108857;28;19970;-71
2022/04/03 00:40:30;;;;;;;;;;;2.70;99.90;;;;;;5108251;28;20397;-70
2022/04/03 00:42:56;;;;;;;;;;;2.70;99.90;;;;;;5106854;28;20005;-70
2022/04/03 00:45:23;;;;;;;;;;;2.80;99.90;;;;;;5108508;28;19952;-71
2022/04/03 00:47:51;;;;;;;;;;;2.70;99.90;;;;;;5108844;28;19968;-70
2022/04/03 00:50:18;;;;;;;;;;;2.70;99.90;;;;;;5108316;28;19947;-70
2022/04/03 00:52:46;;;;;;;;;;;2.70;99.90;;;;;;5109039;28;20020;-72
2022/04/03 00:55:12;;;;;;;;;;;2.70;99.90;;;;;;5107927;28;20431;-71
2022/04/03 00:57:39;;;;;;;;;;;2.70;99.90;;;;;;5107550;28;20514;-72
2022/04/03 01:00:06;;;;;;;;;;;2.70;99.90;;;;;;5107910;28;19987;-71
2022/04/03 01:02:32;;;;;;;;;;;2.70;99.90;;;;;;5109089;28;19948;-70
2022/04/03 01:04:59;;;;;;;;;;;2.70;99.90;;;;;;5108918;28;20004;-72
2022/04/03 01:07:25;;;;;;;;;;;2.70;99.90;;;;;;5109282;28;20540;-68
2022/04/03 01:09:53;;;;;;;;;;;2.70;99.90;;;;;;5108605;28;20033;-70
2022/04/03 01:12:20;;;;;;;;;;;2.70;99.90;;;;;;5107322;28;20033;-70
2022/04/03 01:14:47;;;;;;;;;;;2.70;99.90;;;;;;5108008;28;20323;-70
2022/04/03 01:17:14;;;;;;;;;;;2.70;99.90;;;;;;5113395;27;20408;-72
2022/04/03 01:19:40;;;;;;;;;;;2.70;99.90;;;;;;5107895;28;20051;-69
2022/04/03 01:22:07;;;;;;;;;;;2.60;99.90;;;;;;5108354;28;20607;-70
2022/04/03 01:24:34;;;;;;;;;;;2.60;99.90;;;;;;5106416;28;19998;-71
2022/04/03 01:27:02;;;;;;;;;;;2.60;99.90;;;;;;5107658;27;19971;-70
2022/04/03 01:29:29;;;;;;;;;;;2.60;99.90;;;;;;5106895;28;20082;-70
2022/04/03 01:31:55;;;;;;;;;;;2.60;99.90;;;;;;5106698;28;19984;-70
2022/04/03 01:34:22;;;;;;;;;;;2.60;99.90;;;;;;5107232;28;19956;-71
2022/04/03 01:36:49;;;;;;;;;;;2.60;99.90;;;;;;5126672;22;20425;-68
2022/04/03 01:39:15;;;;;;;;;;;2.60;99.90;;;;;;5086215;28;19949;-69
2022/04/03 01:41:42;;;;;;;;;;;2.60;99.90;;;;;;5087971;28;19947;-68
2022/04/03 01:44:11;;;;;;;;;;;2.60;99.90;;;;;;5090284;28;20399;-69
2022/04/03 01:46:38;;;;;;;;;;;2.60;99.90;;;;;;5090414;28;20400;-68
2022/04/03 01:49:05;;;;;;;;;;;2.60;99.90;;;;;;5089958;28;19953;-69
2022/04/03 01:51:32;;;;;;;;;;;2.50;99.90;;;;;;5089894;28;19967;-68
2022/04/03 01:53:59;;;;;;;;;;;2.60;99.90;;;;;;5090066;28;20444;-67
2022/04/03 01:56:25;;;;;;;;;;;2.60;99.90;;;;;;5090562;28;20093;-69
2022/04/03 01:58:52;;;;;;;;;;;2.60;99.90;;;;;;5089897;28;19980;-69
2022/04/03 02:01:19;;;;;;;;;;;2.60;99.90;;;;;;5097857;28;19968;-67
2022/04/03 02:03:46;;;;;;;;;;;2.60;99.90;;;;;;5097474;28;19955;-68
2022/04/03 02:06:15;;;;;;;;;;;2.60;99.90;;;;;;5090936;28;19989;-68
2022/04/03 02:08:42;;;;;;;;;;;2.60;99.90;;;;;;5089318;28;20345;-68
2022/04/03 02:11:08;;;;;;;;;;;2.60;99.90;;;;;;5080294;28;20409;-67
2022/04/03 02:13:35;;;;;;;;;;;2.50;99.90;;;;;;5099055;28;19952;-68
2022/04/03 02:16:01;;;;;;;;;;;2.50;99.90;;;;;;5090042;28;20514;-68
2022/04/03 02:18:29;;;;;;;;;;;2.50;99.90;;;;;;5090168;28;19969;-68
2022/04/03 02:20:56;;;;;;;;;;;2.50;99.90;;;;;;5089464;28;19949;-69
2022/04/03 02:23:22;;;;;;;;;;;2.50;99.90;;;;;;5089231;28;19992;-68
2022/04/03 02:25:50;;;;;;;;;;;2.50;99.90;;;;;;5088854;28;19991;-68
2022/04/03 02:28:17;;;;;;;;;;;2.50;99.90;;;;;;5090509;28;19969;-67
2022/04/03 02:30:44;;;;;;;;;;;2.50;99.90;;;;;;5091436;28;20015;-68
2022/04/03 02:33:10;;;;;;;;;;;2.50;99.90;;;;;;5100598;28;19960;-68
2022/04/03 02:35:38;;;;;;;;;;;2.40;99.90;;;;;;5089770;28;19948;-68
2022/04/03 02:38:05;;;;;;;;;;;2.40;99.90;;;;;;5088688;28;20541;-69
2022/04/03 02:40:31;;;;;;;;;;;2.40;99.90;;;;;;5089142;28;19947;-68
2022/04/03 02:42:58;;;;;;;;;;;2.40;99.90;;;;;;5088897;28;20408;-69
2022/04/03 02:45:24;;;;;;;;;;;2.40;99.90;;;;;;5089526;28;19956;-67
2022/04/03 02:47:52;;;;;;;;;;;2.40;99.90;;;;;;5097856;28;20512;-69
2022/04/03 02:50:20;;;;;;;;;;;2.30;99.90;;;;;;5089028;28;19948;-67
2022/04/03 02:52:47;;;;;;;;;;;2.30;99.90;;;;;;5088526;28;19960;-68
2022/04/03 02:55:14;;;;;;;;;;;2.30;99.90;;;;;;5088630;28;19954;-67
2022/04/03 02:57:40;;;;;;;;;;;2.30;99.90;;;;;;5088796;28;20014;-69
2022/04/03 03:00:08;;;;;;;;;;;2.30;99.90;;;;;;5090238;28;20398;-69
2022/04/03 03:02:34;;;;;;;;;;;2.30;99.90;;;;;;5088690;28;20414;-68
2022/04/03 03:05:01;;;;;;;;;;;2.30;99.90;;;;;;5088856;28;19947;-69
2022/04/03 03:07:36;;;;;;;;;;;2.20;99.90;;;;;;5090058;28;20323;-69
2022/04/03 03:10:04;;;;;;;;;;;2.30;99.90;;;;;;5092589;28;19943;-68
2022/04/03 03:12:30;;;;;;;;;;;2.30;99.90;;;;;;5095607;28;20428;-68
2022/04/03 03:14:57;;;;;;;;;;;2.20;99.90;;;;;;5093302;28;19995;-67
2022/04/03 03:17:23;;;;;;;;;;;2.20;99.90;;;;;;5088738;28;20017;-67
2022/04/03 03:19:50;;;;;;;;;;;2.20;99.90;;;;;;5088916;28;20001;-67
2022/04/03 03:22:17;;;;;;;;;;;2.20;99.90;;;;;;5087999;28;19950;-67
2022/04/03 03:24:44;;;;;;;;;;;2.10;99.90;;;;;;5093063;28;19942;-69
2022/04/03 03:27:12;;;;;;;;;;;2.10;99.90;;;;;;5092324;28;20465;-68
2022/04/03 03:29:39;;;;;;;;;;;2.10;99.90;;;;;;5098844;28;20495;-68
2022/04/03 03:32:05;;;;;;;;;;;2.10;99.90;;;;;;5098742;28;20094;-69
2022/04/03 03:34:32;;;;;;;;;;;2.10;99.90;;;;;;5107149;28;20044;-69
2022/04/03 03:36:58;;;;;;;;;;;2.10;99.90;;;;;;5092117;28;20011;-68
2022/04/03 03:39:27;;;;;;;;;;;2.10;99.90;;;;;;5092007;28;19951;-69
2022/04/03 03:41:54;;;;;;;;;;;2.10;99.90;;;;;;5092730;28;19946;-69
2022/04/03 03:44:22;;;;;;;;;;;2.10;99.90;;;;;;5092872;28;19950;-68
2022/04/03 03:46:49;;;;;;;;;;;2.10;99.90;;;;;;5091786;28;19947;-68
2022/04/03 03:49:15;;;;;;;;;;;2.10;99.90;;;;;;5092285;28;19986;-69
2022/04/03 03:51:42;;;;;;;;;;;2.10;99.90;;;;;;5106128;28;19955;-68
2022/04/03 03:54:08;;;;;;;;;;;2.10;99.90;;;;;;5092146;28;20084;-67
2022/04/03 03:56:35;;;;;;;;;;;2.10;99.90;;;;;;5092767;28;20010;-69
2022/04/03 03:59:01;;;;;;;;;;;2.00;99.90;;;;;;5094067;28;19983;-67
2022/04/03 04:01:29;;;;;;;;;;;2.00;99.90;;;;;;5098494;28;19940;-67
2022/04/03 04:03:56;;;;;;;;;;;2.00;99.90;;;;;;5093280;28;19999;-69
2022/04/03 04:06:22;;;;;;;;;;;2.00;99.90;;;;;;5087318;28;19957;-67
2022/04/03 04:08:49;;;;;;;;;;;2.00;99.90;;;;;;5092225;28;20017;-69
2022/04/03 04:11:15;;;;;;;;;;;2.00;99.90;;;;;;5091488;28;19976;-68
2022/04/03 04:13:42;;;;;;;;;;;2.00;99.90;;;;;;5091301;28;20020;-69
2022/04/03 04:16:09;;;;;;;;;;;2.00;99.90;;;;;;5093195;28;19945;-67
2022/04/03 04:18:37;;;;;;;;;;;1.90;99.90;;;;;;5091353;28;19957;-68
2022/04/03 04:21:04;;;;;;;;;;;1.90;99.90;;;;;;5093906;28;19942;-69
2022/04/03 04:23:30;;;;;;;;;;;1.90;99.90;;;;;;5093133;28;19947;-68
2022/04/03 04:25:57;;;;;;;;;;;1.90;99.90;;;;;;5091786;28;19945;-67
2022/04/03 04:28:23;;;;;;;;;;;1.90;99.90;;;;;;5100174;28;20024;-67
2022/04/03 04:30:50;;;;;;;;;;;1.90;99.90;;;;;;5091827;28;20359;-67
2022/04/03 04:33:16;;;;;;;;;;;1.80;99.90;;;;;;5091379;28;19962;-68
2022/04/03 04:35:44;;;;;;;;;;;1.80;99.90;;;;;;5091276;28;19957;-67
2022/04/03 04:38:11;;;;;;;;;;;1.70;99.90;;;;;;5094154;28;19982;-68
2022/04/03 04:40:37;;;;;;;;;;;1.70;99.90;;;;;;5083939;28;19946;-68
2022/04/03 04:43:04;;;;;;;;;;;1.70;99.90;;;;;;5091510;28;20525;-66
2022/04/03 04:45:30;;;;;;;;;;;1.70;99.90;;;;;;5084339;28;19955;-68
2022/04/03 04:47:59;;;;;;;;;;;1.70;99.90;;;;;;5095152;28;19963;-67
2022/04/03 04:50:26;;;;;;;;;;;1.70;99.90;;;;;;5091000;28;20036;-68
2022/04/03 04:52:54;;;;;;;;;;;1.70;99.90;;;;;;5090692;28;20055;-68
2022/04/03 04:55:21;;;;;;;;;;;1.80;99.90;;;;;;5092661;28;19951;-68
2022/04/03 04:57:49;;;;;;;;;;;1.80;99.90;;;;;;5091764;28;20515;-68
2022/04/03 05:00:17;;;;;;;;;;;1.80;99.90;;;;;;5092081;28;20561;-68
2022/04/03 05:02:45;;;;;;;;;;;1.70;99.90;;;;;;5098575;28;19945;-68
2022/04/03 05:05:13;;;;;;;;;;;1.70;99.90;;;;;;5096956;28;19949;-68
2022/04/03 05:07:40;;;;;;;;;;;1.70;99.90;;;;;;5092321;28;19963;-67
2022/04/03 05:10:08;;;;;;;;;;;1.60;99.90;;;;;;5080802;28;19944;-66
2022/04/03 05:12:35;;;;;;;;;;;1.70;99.90;;;;;;5079780;28;19960;-68
2022/04/03 05:15:01;;;;;;;;;;;1.70;99.90;;;;;;5091307;28;19949;-68
2022/04/03 05:17:28;;;;;;;;;;;1.70;99.90;;;;;;5090695;28;19989;-68
2022/04/03 05:19:55;;;;;;;;;;;1.70;99.90;;;;;;5097040;28;19950;-67
2022/04/03 05:22:23;;;;;;;;;;;1.70;99.90;;;;;;5090323;28;19946;-67
2022/04/03 05:24:50;;;;;;;;;;;1.70;99.90;;;;;;5103907;28;19965;-68
2022/04/03 05:27:17;;;;;;;;;;;1.70;99.90;;;;;;5090834;28;20450;-68
2022/04/03 05:29:44;;;;;;;;;;;1.70;99.90;;;;;;5092765;28;19952;-68
2022/04/03 05:32:10;;;;;;;;;;;1.60;99.90;;;;;;5094388;28;19941;-67
2022/04/03 05:34:37;;;;;;;;;;;1.60;99.90;;;;;;5093416;28;19954;-69
2022/04/03 05:37:04;;;;;;;;;;;1.60;99.90;;;;;;5091390;28;19973;-69
2022/04/03 05:39:30;;;;;;;;;;;1.60;99.90;;;;;;5091471;28;19992;-69
2022/04/03 05:41:57;;;;;;;;;;;1.60;99.90;;;;;;5091658;28;20329;-66
2022/04/03 05:44:25;;;;;;;;;;;1.60;99.90;;;;;;5091043;28;19958;-68
2022/04/03 05:46:52;;;;;;;;;;;1.60;99.90;;;;;;5088552;28;19953;-67
2022/04/03 05:49:18;;;;;;;;;;;1.60;99.90;;;;;;5090210;28;19943;-67
2022/04/03 05:51:45;;;;;;;;;;;1.60;99.90;;;;;;5089988;28;20000;-69
2022/04/03 05:54:11;;;;;;;;;;;1.60;99.90;;;;;;5094240;28;19962;-65
2022/04/03 05:56:38;;;;;;;;;;;1.60;99.90;;;;;;5097412;28;19946;-68
2022/04/03 05:59:04;;;;;;;;;;;1.60;99.90;;;;;;5090658;28;20032;-69
2022/04/03 06:01:32;;;;;;;;;;;1.60;99.90;;;;;;5082833;28;19999;-69
2022/04/03 06:03:59;;;;;;;;;;;1.70;99.90;;;;;;5089105;28;20310;-69
2022/04/03 06:06:25;;;;;;;;;;;1.70;99.90;;;;;;5097549;28;20002;-69
2022/04/03 06:08:52;;;;;;;;;;;1.70;99.90;;;;;;5086254;28;19963;-66
2022/04/03 06:11:18;;;;;;;;;;;1.80;99.90;;;;;;5085531;28;19963;-66
2022/04/03 06:13:45;;;;;;;;;;;1.90;99.90;;;;;;5086707;28;20006;-65
2022/04/03 06:16:11;;;;;;;;;;;1.90;99.90;;;;;;5093752;28;19944;-67
2022/04/03 06:18:39;;;;;;;;;;;2.00;99.90;;;;;;5088803;28;20315;-66
2022/04/03 06:21:06;;;;;;;;;;;2.00;99.90;;;;;;5091538;28;20405;-69
2022/04/03 06:23:33;;;;;;;;;;;2.00;99.90;;;;;;5091577;28;20034;-66
2022/04/03 06:25:59;;;;;;;;;;;1.90;99.90;;;;;;5093121;28;20031;-66
2022/04/03 06:28:26;;;;;;;;;;;1.80;99.90;;;;;;5091581;28;20020;-66
2022/04/03 06:30:54;;;;;;;;;;;1.70;99.90;;;;;;5086512;28;20070;-68
2022/04/03 06:33:20;;;;;;;;;;;1.60;99.90;;;;;;5089569;28;20394;-67
2022/04/03 06:35:49;;;;;;;;;;;1.50;99.90;;;;;;5089114;28;20336;-67
2022/04/03 06:38:16;;;;;;;;;;;1.40;99.90;;;;;;5081935;28;19964;-68
2022/04/03 06:40:45;;;;;;;;;;;1.30;99.90;;;;;;5088824;28;19950;-67
2022/04/03 06:43:11;;;;;;;;;;;1.30;99.90;;;;;;5083409;28;19957;-70
2022/04/03 06:45:38;;;;;;;;;;;1.40;99.90;;;;;;5087463;28;20366;-67
2022/04/03 06:48:05;;;;;;;;;;;1.40;99.90;;;;;;5088150;28;19986;-69
2022/04/03 06:50:31;;;;;;;;;;;1.50;99.90;;;;;;5087601;28;20019;-67
2022/04/03 06:52:59;;;;;;;;;;;1.60;99.90;;;;;;5089456;28;20482;-68
2022/04/03 06:55:26;;;;;;;;;;;1.70;99.90;;;;;;5106027;28;19947;-66
2022/04/03 06:57:52;;;;;;;;;;;1.80;99.90;;;;;;5093015;28;20542;-67
2022/04/03 07:00:19;;;;;;;;;;;1.90;99.90;;;;;;5092800;28;20037;-68
2022/04/03 07:02:46;;;;;;;;;;;2.00;99.90;;;;;;5089632;28;19955;-68
2022/04/03 07:05:12;;;;;;;;;;;2.00;99.90;;;;;;5088681;28;20395;-67
2022/04/03 07:07:41;;;;;;;;;;;2.20;99.90;;;;;;5085664;28;21118;-67
2022/04/03 07:10:09;;;;;;;;;;;2.30;99.90;;;;;;5084848;28;19955;-67
2022/04/03 07:12:36;;;;;;;;;;;2.50;99.90;;;;;;5083862;28;20030;-67
2022/04/03 07:15:03;;;;;;;;;;;2.60;99.90;;;;;;5085135;28;19962;-68
2022/04/03 07:17:29;;;;;;;;;;;2.60;99.90;;;;;;5088150;28;19959;-67
2022/04/03 07:19:56;;;;;;;;;;;2.70;99.90;;;;;;5086632;28;19947;-67
2022/04/03 07:22:23;;;;;;;;;;;2.80;99.90;;;;;;5087842;28;19952;-68
2022/04/03 07:24:49;;;;;;;;;;;2.80;99.90;;;;;;5086796;28;20009;-68
2022/04/03 07:27:17;;;;;;;;;;;2.90;99.90;;;;;;5088381;28;19960;-67
2022/04/03 07:29:43;;;;;;;;;;;3.00;99.90;;;;;;5087008;28;19955;-66
2022/04/03 07:32:10;;;;;;;;;;;3.10;99.90;;;;;;5087710;28;19953;-68
2022/04/03 07:34:37;;;;;;;;;;;3.20;99.90;;;;;;5084751;28;20025;-69
2022/04/03 07:37:04;;;;;;;;;;;3.30;99.90;;;;;;5085601;28;19966;-67
2022/04/03 07:39:31;;;;;;;;;;;3.50;99.90;;;;;;5086207;28;20411;-68
2022/04/03 07:41:58;;;;;;;;;;;3.60;99.90;;;;;;5088300;28;19945;-68
2022/04/03 07:44:25;;;;;;;;;;;3.80;99.90;;;;;;5084254;28;19954;-66
2022/04/03 07:46:52;;;;;;;;;;;4.00;99.90;;;;;;5087672;28;19948;-68
2022/04/03 07:49:18;;;;;;;;;;;4.10;99.90;;;;;;5088620;28;19954;-66
2022/04/03 07:51:45;;;;;;;;;;;4.30;99.90;;;;;;5088880;28;19953;-68
2022/04/03 07:54:11;;;;;;;;;;;4.50;99.90;;;;;;5090920;28;20498;-67
2022/04/03 07:56:38;;;;;;;;;;;4.50;99.90;;;;;;5102502;28;19954;-65
2022/04/03 07:59:06;;;;;;;;;;;4.70;99.90;;;;;;5088189;28;19947;-69
2022/04/03 08:01:34;;;;;;;;;;;4.80;99.90;;;;;;5088182;28;19947;-65
2022/04/03 08:04:00;;;;;;;;;;;4.90;99.90;;;;;;5088727;28;20460;-65
2022/04/03 08:06:27;;;;;;;;;;;5.10;99.90;;;;;;5098246;28;19954;-67
2022/04/03 08:08:54;;;;;;;;;;;5.30;99.90;;;;;;5079512;28;19964;-67
2022/04/03 08:11:21;;;;;;;;;;;5.50;99.90;;;;;;5093385;28;19952;-66
2022/04/03 08:13:47;;;;;;;;;;;5.60;99.90;;;;;;5104433;28;19961;-69
2022/04/03 08:16:14;;;;;;;;;;;5.80;99.90;;;;;;5091810;28;19949;-68
2022/04/03 08:18:43;;;;;;;;;;;6.00;99.90;;;;;;5092470;28;20056;-69
2022/04/03 08:21:10;;;;;;;;;;;6.10;99.90;;;;;;5094116;28;19944;-68
2022/04/03 08:23:37;;;;;;;;;;;6.30;99.90;;;;;;5092360;28;19947;-68
2022/04/03 08:26:04;;;;;;;;;;;6.50;99.90;;;;;;5094401;28;19946;-66
2022/04/03 08:28:31;;;;;;;;;;;6.70;99.90;;;;;;5089602;28;20594;-66
2022/04/03 08:30:58;;;;;;;;;;;6.90;99.90;;;;;;5106942;28;19945;-66
2022/04/03 08:33:24;;;;;;;;;;;7.10;99.90;;;;;;5103298;28;19950;-65
2022/04/03 08:35:52;;;;;;;;;;;7.20;99.90;;;;;;5107575;28;20456;-65
2022/04/03 08:38:19;;;;;;;;;;;7.30;99.90;;;;;;5093851;28;20466;-66
2022/04/03 08:40:45;;;;;;;;;;;7.50;99.90;;;;;;5102814;28;19992;-64
2022/04/03 08:43:13;;;;;;;;;;;7.60;99.90;;;;;;5095288;28;20401;-65
2022/04/03 08:45:39;;;;;;;;;;;7.70;99.90;;;;;;5092710;28;19958;-65
2022/04/03 08:48:08;;;;;;;;;;;7.90;99.90;;;;;;5091895;28;19973;-65
2022/04/03 08:50:35;;;;;;;;;;;8.00;99.90;;;;;;5091011;28;19946;-66
2022/04/03 08:53:04;;;;;;;;;;;8.00;99.90;;;;;;5092219;28;19950;-66
2022/04/03 08:55:31;;;;;;;;;;;8.00;99.90;;;;;;5091042;28;20027;-65
2022/04/03 08:57:57;;;;;;;;;;;8.10;99.90;;;;;;5091837;28;19960;-67
2022/04/03 09:00:24;;;;;;;;;;;8.20;99.90;;;;;;5096303;28;19946;-66
2022/04/03 09:02:51;;;;;;;;;;;8.40;99.90;;;;;;5095771;28;20017;-66
2022/04/03 09:05:17;;;;;;;;;;;8.70;99.90;;;;;;5091635;28;20462;-67
2022/04/03 09:07:44;;;;;;;;;;;8.90;99.90;;;;;;5109835;22;20577;-72
2022/04/03 09:10:14;;;;;;;;;;;8.90;99.90;;;;;;5059807;28;20062;-70
2022/04/03 09:12:44;;;;;;;;;;;9.00;99.90;;;;;;5048730;28;19966;-69
2022/04/03 09:15:12;;;;;;;;;;;9.10;99.90;;;;;;5067670;28;19979;-68
2022/04/03 09:17:42;;;;;;;;;;;9.10;99.90;;;;;;5062875;28;19958;-68
2022/04/03 09:20:12;;;;;;;;;;;9.10;99.90;;;;;;5058545;28;19950;-68
2022/04/03 09:22:39;;;;;;;;;;;9.20;99.90;;;;;;5058333;28;19937;-69
2022/04/03 09:25:06;;;;;;;;;;;9.30;99.90;;;;;;5055226;28;19945;-69
2022/04/03 09:27:35;;;;;;;;;;;9.30;99.90;;;;;;5052671;28;19972;-69
2022/04/03 09:30:04;;;;;;;;;;;9.30;99.90;;;;;;5055857;28;20039;-69
2022/04/03 09:32:30;;;;;;;;;;;9.10;98.60;;;;;;5061978;28;19961;-69
2022/04/03 09:34:58;;;;;;;2.00;1.60;;;9.20;98.30;;;;;;5059352;28;20900;-68
2022/04/03 09:37:26;;;;;;;1.83;1.73;;;9.40;96.80;;;;;;5057656;28;20282;-69
2022/04/03 09:39:53;;;;;;;1.23;1.13;;;9.70;97.80;;;;;;5055764;28;20451;-69
2022/04/03 09:42:20;;;;;;;1.27;1.17;;;10.10;96.90;;;;;;5058713;28;20463;-68
2022/04/03 09:44:50;;;;;;;1.47;1.03;;;10.30;93.10;;;;;;5059006;28;20511;-69
2022/04/03 09:47:30;;;;;;;1.00;0.90;;;10.40;91.00;;;;;;5053416;28;20623;-70
2022/04/03 09:49:58;;;;;;;3.33;1.50;;;10.40;89.40;;;;;;5056404;28;20469;-68
2022/04/03 09:52:43;;;;;;;1.60;1.50;;;10.50;91.40;;;;;;5058029;28;20610;-68
2022/04/03 09:55:17;;;;;;;1.97;1.70;;;10.50;91.70;;;;;;5056938;28;20935;-68
2022/04/03 09:57:45;;;;;;;2.50;2.30;;;10.50;91.80;;;;;;5058612;28;20483;-69
2022/04/03 10:00:27;;;;;;;4.43;2.47;;;10.40;93.20;;;;;;5056875;28;20926;-69
2022/04/03 10:02:58;;;;;;;2.23;2.07;;;10.50;93.80;;;;;;5065633;28;20596;-69
2022/04/03 10:05:26;;;;;;;2.63;2.43;;;10.50;94.30;;;;;;5060085;28;20486;-68
2022/04/03 10:07:52;;;;;;;2.90;2.70;;;10.50;93.40;;;;;;5054733;28;20487;-69
2022/04/03 10:10:20;;;;;;;3.53;3.23;;;10.40;93.50;;;;;;5054255;28;20475;-70
2022/04/03 10:12:47;;;;;;;2.60;2.40;;;10.60;93.90;;;;;;5059662;28;21345;-69
2022/04/03 10:15:16;;;;;;;3.13;2.83;;;10.50;94.00;;;;;;5049096;28;20536;-72
2022/04/03 10:17:42;;;;;;;2.37;2.17;;;10.50;93.10;;;;;;5052295;28;20493;-69
2022/04/03 10:20:10;;;;;;;2.20;2.00;;;10.60;92.60;;;;;;5055578;28;20585;-70
2022/04/03 10:22:39;;;;;;;2.47;2.27;;;10.60;91.40;;;;;;5056021;28;20467;-71
2022/04/03 10:25:11;;;;;;;2.33;2.03;;;10.50;89.20;;;;;;5065542;28;20928;-71
2022/04/03 10:27:40;;;;;;;2.27;2.10;;;10.20;89.40;;;;;;5058490;28;20479;-71
2022/04/03 10:30:08;;;;;;;1.60;1.50;;;10.00;88.90;;;;;;5053176;28;21030;-70
2022/04/03 10:32:36;;;;;;;2.30;2.10;;;10.00;90.10;;;;;;5055800;28;20465;-71
2022/04/03 10:35:06;;;;;;;2.57;1.97;;;10.00;91.40;;;;;;5051212;28;20495;-71
2022/04/03 10:37:34;;;;;;;2.20;2.07;;;10.30;91.00;;;;;;5050528;28;20514;-70
2022/04/03 10:40:08;;;;;;;2.10;1.90;;;10.20;91.40;;;;;;5053842;28;20455;-71
2022/04/03 10:42:48;;;;;;;2.73;2.50;;;10.30;91.70;;;;;;5052925;28;20460;-70
2022/04/03 10:45:25;;;;;;;1.87;1.77;;;10.30;90.40;;;;;;5057182;28;20585;-70
2022/04/03 10:48:13;;;;;;;2.13;1.93;;;10.40;88.00;;;;;;5057949;28;20487;-69
2022/04/03 10:50:59;;;;;;;2.70;1.50;;;10.30;90.20;;;;;;5052973;28;20536;-69
2022/04/03 10:53:30;;;;;;;1.70;1.60;;;10.50;90.10;;;;;;5046191;28;20988;-69
2022/04/03 10:55:57;;;;;;;3.23;2.20;;;10.90;88.90;;;;;;5053338;28;20961;-70
2022/04/03 10:58:24;;;;;;;1.30;1.20;;;11.20;86.00;;;;;;5049904;28;20548;-70
2022/04/03 11:00:52;;;;;;;1.77;1.67;;;11.40;87.10;;;;;;5049688;28;20458;-72
2022/04/03 11:03:34;;;;;;;1.90;1.63;;;11.40;88.20;;;;;;5050809;28;20480;-71
2022/04/03 11:06:19;;;;;;;6.83;2.97;;;11.20;86.20;;;;;;5062661;28;20459;-70
2022/04/03 11:09:01;;;;;;;1.57;1.47;;;11.00;86.40;;;;;;5048747;28;20907;-71
2022/04/03 11:11:35;;;;;;;1.63;1.33;;;10.70;89.70;;;;;;5054917;28;20539;-71
2022/04/03 11:14:01;;;;;;;2.70;1.63;;;10.50;89.80;;;;;;5055273;28;20485;-71
2022/04/03 11:16:28;;;;;;;1.60;1.50;;;10.50;88.70;;;;;;5054816;28;20525;-69
2022/04/03 11:19:04;;;;;;;2.03;1.93;;;10.70;87.60;;;;;;5050998;28;20548;-70
2022/04/03 11:21:34;;;;;;;2.97;2.27;;;11.20;88.40;;;;;;5053878;28;20457;-70
2022/04/03 11:24:04;;;;;;;1.70;1.47;;;11.50;86.30;;;;;;5059105;28;20521;-72
2022/04/03 11:26:31;;;;;;;1.80;1.70;;;11.70;85.00;;;;;;5048004;28;20509;-71
2022/04/03 11:28:58;;;;;;;1.73;1.60;;;11.60;84.50;;;;;;5050810;28;20475;-72
2022/04/03 11:31:26;;;;;;;1.20;1.10;;;11.70;84.40;;;;;;5052601;28;20443;-72
2022/04/03 11:33:53;;;;;;;3.47;1.30;;;11.50;85.10;;;;;;5053910;28;20451;-70
2022/04/03 11:36:26;;;;;;;1.73;1.47;;;11.50;82.60;;;;;;5058255;28;20486;-71
2022/04/03 11:38:53;;;;;;;2.30;1.50;;;11.40;86.30;;;;;;5050975;28;20547;-72
2022/04/03 11:41:25;;;;;;;2.07;1.43;;;11.10;86.10;;;;;;5052413;28;20544;-70
2022/04/03 11:43:57;;;;;;;2.13;1.60;;;11.10;86.40;;;;;;5052690;28;20479;-73
2022/04/03 11:46:23;;;;;;;2.33;1.50;;;11.00;87.10;;;;;;5057441;28;20448;-69
2022/04/03 11:48:50;;;;;;;1.93;1.80;;;11.00;87.30;;;;;;5057039;28;20479;-71
2022/04/03 11:51:19;;;;;;;1.77;1.67;;;11.30;86.80;;;;;;5050498;28;20471;-71
2022/04/03 11:53:49;;;;;;;1.93;1.83;;;11.50;87.00;;;;;;5057085;28;20562;-72
2022/04/03 11:56:18;;;;;;;2.00;1.90;;;11.40;87.20;;;;;;5060415;28;20488;-72
2022/04/03 11:58:48;;;;;;;7.90;1.93;;;11.90;88.40;;;;;;5053033;28;20582;-71
2022/04/03 12:01:23;;;;;;;1.50;1.30;;;12.30;87.40;;;;;;5057858;28;20507;-70
2022/04/03 12:03:58;;;;;;;2.00;1.90;;;12.90;87.50;;;;;;5058265;28;20467;-72
2022/04/03 12:06:26;;;;;;;1.70;1.47;;;13.30;87.00;;;;;;5058981;28;20540;-71
2022/04/03 12:08:54;;;;;;;1.27;1.17;;;13.70;84.30;;;;;;5057864;28;20892;-71
2022/04/03 12:11:25;;;;;;;2.13;1.73;;;13.60;83.30;;;;;;5058290;28;20827;-71
2022/04/03 12:13:52;;;;;;;1.80;1.40;;;13.90;84.50;;;;;;5058895;28;20529;-71
2022/04/03 12:16:22;;;;;;;1.60;1.47;;;14.90;84.70;;;;;;5055490;28;20809;-71
2022/04/03 12:18:53;;;;;;;1.47;1.27;;;15.20;83.00;;;;;;5061040;28;20515;-71
2022/04/03 12:21:19;;;;;;;3.07;1.47;;;15.50;80.10;;;;;;5057009;28;20910;-72
2022/04/03 12:24:07;;;;;;;1.23;1.13;;;15.00;80.50;;;;;;5056465;28;20493;-71
2022/04/03 12:26:34;;;;;;;1.37;1.27;;;14.20;80.80;;;;;;5059449;28;20512;-70
2022/04/03 12:29:01;;;;;;;1.80;1.20;;;15.20;78.40;;;;;;5050411;28;20840;-70
2022/04/03 12:31:29;;;;;;;6.30;2.13;;;17.00;78.60;;;;;;5062938;28;21164;-71
2022/04/03 12:34:10;;;;;;;1.10;1.00;;;18.60;77.20;;;;;;5064882;28;20486;-71
2022/04/03 12:36:45;;;;;;;1.00;0.90;;;20.10;74.60;;;;;;5057824;28;20489;-71
2022/04/03 12:39:37;;;;;;;1.07;0.60;;;21.20;69.70;;;;;;5065832;28;20494;-71
2022/04/03 12:42:17;;;;;;;;;;;22.50;63.50;;;;;;5058399;28;20486;-68
2022/04/03 12:44:44;;;;;;;;;;;23.20;60.00;;;;;;5059545;28;19942;-69
2022/04/03 12:47:15;;;;;;;;;;;23.90;57.60;;;;;;5055909;28;20667;-71
2022/04/03 12:49:41;;;;;;;;;;;24.80;54.00;;;;;;5057606;28;20015;-71
2022/04/03 12:52:08;;;;;;;;;;;24.50;54.80;;;;;;5056614;28;19944;-71
2022/04/03 12:54:42;;;;;;;;;;;25.10;52.30;;;;;;5051815;28;20385;-71
2022/04/03 13:00:04;;;;;;;;;;;22.10;51.10;;;;;;5049974;28;20045;-71
2022/04/03 13:02:38;;;;;;;;;;;20.10;50.90;;;;;;5052686;28;19976;-71
2022/04/03 13:05:04;;;;;;;;;;;18.10;52.90;;;;;;5057896;28;20411;-70
2022/04/03 13:07:31;;;;;;;;;;;16.40;53.60;;;;;;5052560;28;20018;-70
2022/04/03 13:10:00;;;;;;;;;;;15.40;55.60;;;;;;5062932;28;19990;-70
2022/04/03 13:12:27;;;;;;;;;;;16.90;57.50;;;;;;5057727;28;20314;-70
2022/04/03 13:14:55;;;;;;;;;;;17.40;55.20;;;;;;5055737;28;20394;-70
2022/04/03 13:17:22;;;;;;;;;;;18.40;54.90;;;;;;5052874;28;19945;-72
2022/04/03 13:19:49;;;;;;;;;;;19.60;54.00;;;;;;5048606;28;20353;-72
2022/04/03 13:22:16;;;;;;;;;;;20.50;53.50;;;;;;5064227;28;20041;-72
2022/04/03 13:24:42;;;;;;;;;;;19.90;53.70;;;;;;5053751;28;19963;-70
2022/04/03 13:27:10;;;;;;;;;;;18.80;54.60;;;;;;5053102;28;19989;-71
2022/04/03 13:29:38;;;;;;;;;;;17.70;54.30;;;;;;5059270;28;19942;-70
2022/04/03 13:32:05;;;;;;;;;;;16.40;54.90;;;;;;5057125;28;19950;-71
2022/04/03 13:34:32;;;;;;;;;;;16.90;56.80;;;;;;5055665;28;20005;-70
2022/04/03 13:36:58;;;;;;;;;;;18.80;55.00;;;;;;5064882;28;20019;-72
2022/04/03 13:39:25;;;;;;;;;;;20.60;54.00;;;;;;5057452;28;20370;-72
2022/04/03 13:41:52;;;;;;;;;;;21.50;53.80;;;;;;5057423;28;20289;-69
2022/04/03 13:44:20;;;;;;;;;;;22.30;52.00;;;;;;5052010;28;19947;-69
2022/04/03 13:46:47;;;;;;;;;;;22.00;51.10;;;;;;5065157;28;20014;-72
2022/04/03 13:49:14;;;;;;;;;;;22.50;51.70;;;;;;5056220;28;19978;-70
2022/04/03 13:51:41;;;;;;;;;;;21.00;51.60;;;;;;5057482;28;19948;-71
2022/04/03 13:54:08;;;;;;;;;;;19.20;52.00;;;;;;5056614;28;19947;-70
2022/04/03 13:56:34;;;;;;;;;;;18.00;53.50;;;;;;5049213;28;19962;-73
2022/04/03 13:59:01;;;;;;;;;;;16.50;53.30;;;;;;5061229;28;19959;-70
2022/04/03 14:01:29;;;;;;;;;;;16.50;54.00;;;;;;5053015;28;19945;-70
2022/04/03 14:03:56;;;;;;;;;;;17.00;53.80;;;;;;5050656;28;20284;-71
2022/04/03 14:06:23;;;;;;;;;;;17.40;52.20;;;;;;5062103;28;19985;-72
2022/04/03 14:08:49;;;;;;;;;;;16.80;53.50;;;;;;5050861;28;20736;-70
2022/04/03 14:11:17;;;;;;;;;;;15.80;54.80;;;;;;5045454;28;19964;-72